Time;durP1;ratioP1;P1;durP2;ratioP2;P2;SDS_P1;SDS_P2;PMS_P1;PMS_P2;Temp;Humidity;BMP_temperature;BMP_pressure;BME280_temperature;BME280_humidity;BME280_pressure;Samples;Min_cycle;Max_cycle;Signal;HPM_P1;HPM_P2
2022/04/27 00:02:09;;;;;;;16.65;11.40;;;;;;;4.81;83.44;96683.48;1718433;82;20980;-82
2022/04/27 00:04:37;;;;;;;17.70;13.58;;;;;;;4.81;83.56;96681.72;1724275;81;21006;-82
2022/04/27 00:07:07;;;;;;;17.23;12.85;;;;;;;4.84;83.56;96678.05;1770187;81;20901;-82
2022/04/27 00:09:38;;;;;;;19.70;13.78;;;;;;;4.87;83.71;96680.34;1745005;81;21054;-82
2022/04/27 00:12:06;;;;;;;19.62;14.10;;;;;;;4.87;83.78;96680.34;1773130;81;21103;-82
2022/04/27 00:14:36;;;;;;;19.42;14.98;;;;;;;4.87;83.96;96679.53;1741042;81;21327;-82
2022/04/27 00:17:02;;;;;;;21.77;15.30;;;;;;;4.87;84.43;96683.39;1769975;81;20979;-82
2022/04/27 00:19:28;;;;;;;20.52;14.40;;;;;;;4.89;84.48;96684.91;1770061;81;20981;-82
2022/04/27 00:21:57;;;;;;;18.95;13.88;;;;;;;4.92;84.77;96678.18;1770014;81;20965;-83
2022/04/27 00:24:24;;;;;;;20.08;13.00;;;;;;;4.97;84.83;96681.62;1750794;81;21052;-82
2022/04/27 00:26:53;;;;;;;17.60;13.50;;;;;;;5.03;84.68;96687.48;1769958;81;20985;-82
2022/04/27 00:29:28;;;;;;;17.12;12.93;;;;;;;5.06;84.66;96679.50;1751158;81;21048;-82
2022/04/27 00:31:56;;;;;;;17.00;12.70;;;;;;;5.10;84.69;96682.12;1754972;81;20930;-82
2022/04/27 00:34:27;;;;;;;17.32;11.90;;;;;;;5.08;84.66;96685.33;1736670;82;20952;-83
2022/04/27 00:36:59;;;;;;;18.12;12.10;;;;;;;5.06;84.63;96679.03;1740671;82;21010;-83
2022/04/27 00:39:29;;;;;;;17.77;11.28;;;;;;;5.04;84.66;96680.09;1757360;81;21126;-82
2022/04/27 00:42:02;;;;;;;16.42;11.90;;;;;;;5.03;84.51;96675.89;1768475;81;21059;-82
2022/04/27 00:44:32;;;;;;;14.98;11.25;;;;;;;5.02;84.39;96675.56;1754016;81;20976;-82
2022/04/27 00:47:03;;;;;;;15.58;11.05;;;;;;;5.01;84.29;96674.75;1752297;81;21013;-82
2022/04/27 00:49:32;;;;;;;15.72;11.43;;;;;;;5.01;84.25;96670.89;1777665;80;20905;-82
2022/04/27 00:52:05;;;;;;;15.55;10.95;;;;;;;5.02;84.31;96675.56;1778306;81;20985;-83
2022/04/27 00:54:34;;;;;;;14.73;11.30;;;;;;;5.01;84.39;96671.36;1777800;81;21012;-82
2022/04/27 00:57:03;;;;;;;15.50;10.82;;;;;;;4.99;84.48;96671.98;1752826;81;21475;-82
2022/04/27 00:59:34;;;;;;;15.18;10.10;;;;;;;5.00;84.52;96673.61;1752417;81;20984;-83
2022/04/27 01:02:03;;;;;;;12.65;9.38;;;;;;;5.00;84.50;96671.03;1751585;81;20998;-82
2022/04/27 01:04:36;;;;;;;11.68;8.58;;;;;;;5.03;84.39;96672.03;1777779;80;21327;-82
2022/04/27 01:07:08;;;;;;;10.95;8.33;;;;;;;5.05;84.36;96674.02;1777853;80;20991;-82
2022/04/27 01:09:36;;;;;;;12.25;8.78;;;;;;;5.04;84.29;96674.94;1778572;81;20963;-82
2022/04/27 01:12:08;;;;;;;10.28;8.85;;;;;;;5.03;84.37;96677.19;1777909;80;20988;-82
2022/04/27 01:14:45;;;;;;;11.55;8.40;;;;;;;5.02;84.56;96673.80;1778692;80;20979;-83
2022/04/27 01:17:11;;;;;;;9.88;7.70;;;;;;;5.02;84.77;96678.14;1753082;81;21083;-82
2022/04/27 01:19:39;;;;;;;10.18;7.62;;;;;;;5.05;84.99;96684.32;1752366;81;21024;-82
2022/04/27 01:22:06;;;;;;;9.43;7.25;;;;;;;5.08;85.01;96682.27;1778069;80;21010;-83
2022/04/27 01:24:33;;;;;;;10.60;7.25;;;;;;;5.13;85.02;96683.13;1778231;80;20972;-82
2022/04/27 01:26:59;;;;;;;9.58;7.45;;;;;;;5.18;85.00;96684.80;1752479;81;21056;-82
2022/04/27 01:29:25;;;;;;;10.20;7.78;;;;;;;5.25;84.85;96691.03;1778438;81;21091;-83
2022/04/27 01:31:53;;;;;;;9.03;7.33;;;;;;;5.28;84.84;96686.88;1764644;80;21299;-82
2022/04/27 01:34:20;;;;;;;9.43;7.00;;;;;;;5.29;84.87;96687.21;1747665;82;20972;-82
2022/04/27 01:36:49;;;;;;;9.28;7.28;;;;;;;5.33;84.83;96695.47;1747695;82;21031;-82
2022/04/27 01:39:15;;;;;;;8.08;6.25;;;;;;;5.34;84.76;96684.20;1751003;81;21006;-82
2022/04/27 01:41:44;;;;;;;7.40;5.40;;;;;;;5.37;84.64;96692.48;1756414;81;21051;-82
2022/04/27 01:44:10;;;;;;;6.95;5.67;;;;;;;5.43;84.60;96689.33;1765200;81;21035;-82
2022/04/27 01:46:37;;;;;;;8.78;6.20;;;;;;;5.47;84.41;96695.00;1764862;81;21382;-83
2022/04/27 01:49:05;;;;;;;8.98;6.25;;;;;;;5.47;84.35;96689.84;1765257;81;21021;-83
2022/04/27 01:54:21;;;;;;;9.00;6.80;;;;;;;5.49;84.31;96691.80;1743733;81;20996;-82
2022/04/27 01:56:49;;;;;;;9.50;6.60;;;;;;;5.50;84.22;96690.84;1765310;81;20936;-82
2022/04/27 01:59:16;;;;;;;8.50;5.62;;;;;;;5.52;84.15;96690.70;1765300;81;21351;-82
2022/04/27 02:01:44;;;;;;;7.50;5.85;;;;;;;5.55;84.05;96691.25;1765333;81;20991;-82
2022/04/27 02:04:14;;;;;;;13.75;6.87;;;;;;;5.55;83.77;96693.02;1765249;81;21362;-82
2022/04/27 02:06:42;;;;;;;10.35;6.47;;;;;;;5.54;83.72;96683.67;1740551;81;20988;-82
2022/04/27 02:09:08;;;;;;;8.28;6.45;;;;;;;5.55;83.76;96686.58;1739868;81;20988;-82
2022/04/27 02:11:35;;;;;;;10.30;6.67;;;;;;;5.55;83.76;96689.16;1765261;81;21031;-82
2022/04/27 02:14:02;;;;;;;9.88;7.12;;;;;;;5.55;83.74;96687.87;1765206;81;20972;-82
2022/04/27 02:16:30;;;;;;;10.78;7.00;;;;;;;5.51;83.58;96687.80;1765538;81;21036;-83
2022/04/27 02:18:56;;;;;;;8.98;7.28;;;;;;;5.48;83.55;96681.64;1765229;81;20996;-83
2022/04/27 02:21:24;;;;;;;9.40;7.87;;;;;;;5.47;83.56;96687.75;1739790;81;21346;-83
2022/04/27 02:23:50;;;;;;;9.78;6.95;;;;;;;5.49;83.52;96688.42;1765277;81;20964;-82
2022/04/27 02:26:18;;;;;;;9.08;7.47;;;;;;;5.47;83.34;96686.46;1765235;81;21003;-82
2022/04/27 02:28:45;;;;;;;9.75;7.10;;;;;;;5.46;83.30;96692.57;1740340;81;21038;-82
2022/04/27 02:31:11;;;;;;;8.13;7.00;;;;;;;5.42;83.30;96686.42;1759853;81;20995;-82
2022/04/27 02:33:37;;;;;;;9.25;6.95;;;;;;;5.38;83.30;96684.28;1747252;81;20995;-82
2022/04/27 02:36:04;;;;;;;9.83;7.22;;;;;;;5.33;83.27;96689.83;1747255;81;20983;-82
2022/04/27 02:38:31;;;;;;;8.90;7.30;;;;;;;5.28;83.13;96693.80;1720178;82;21015;-82
2022/04/27 02:40:57;;;;;;;10.03;7.05;;;;;;;5.21;83.12;96694.84;1720198;82;21031;-82
2022/04/27 02:43:24;;;;;;;9.00;6.37;;;;;;;5.20;83.19;96693.20;1742085;81;21008;-83
2022/04/27 02:45:50;;;;;;;9.25;7.15;;;;;;;5.19;83.08;96697.20;1773055;81;20985;-82
2022/04/27 02:48:16;;;;;;;10.48;7.03;;;;;;;5.17;83.01;96691.38;1772950;81;21331;-82
2022/04/27 02:53:29;;;;;;;9.13;6.65;;;;;;;5.11;83.02;96697.92;1772808;81;21088;-82
2022/04/27 02:55:56;;;;;;;7.42;6.10;;;;;;;5.05;83.00;96691.57;1772875;81;21036;-82
2022/04/27 02:58:22;;;;;;;9.08;7.08;;;;;;;5.00;82.97;96700.17;1772097;81;21008;-82
2022/04/27 03:00:50;;;;;;;9.68;5.47;;;;;;;4.96;82.87;96698.83;1774058;81;20974;-82
2022/04/27 03:03:17;;;;;;;8.55;6.10;;;;;;;4.94;82.76;96694.30;1772718;81;20999;-83
2022/04/27 03:05:44;;;;;;;7.03;5.83;;;;;;;4.93;82.66;96696.54;1772380;80;20976;-82
2022/04/27 03:08:10;;;;;;;8.73;6.05;;;;;;;4.91;82.60;96701.02;1772875;81;20933;-82
2022/04/27 03:10:35;;;;;;;7.55;5.87;;;;;;;4.86;82.56;96703.17;1772703;81;20972;-83
2022/04/27 03:13:01;;;;;;;8.50;5.83;;;;;;;4.82;82.69;96700.55;1772754;81;21011;-82
2022/04/27 03:15:27;;;;;;;7.92;6.40;;;;;;;4.77;82.66;96707.88;1772915;81;20991;-82
2022/04/27 03:20:37;;;;;;;9.15;6.03;;;;;;;4.72;82.59;96710.06;1773004;81;21345;-82
2022/04/27 03:23:03;;;;;;;7.58;5.45;;;;;;;4.70;82.51;96711.94;1773153;81;20931;-83
2022/04/27 03:25:28;;;;;;;8.20;5.03;;;;;;;4.67;82.56;96713.03;1772788;81;20980;-82
2022/04/27 03:27:54;;;;;;;7.22;5.30;;;;;;;4.63;82.59;96716.83;1773124;81;20991;-82
2022/04/27 03:30:20;;;;;;;8.30;5.95;;;;;;;4.59;82.61;96717.25;1772893;81;21475;-83
2022/04/27 03:32:46;;;;;;;8.13;5.00;;;;;;;4.53;82.68;96718.11;1747934;81;21063;-82
2022/04/27 03:35:11;;;;;;;5.67;4.50;;;;;;;4.53;82.68;96712.16;1742548;82;21047;-83
2022/04/27 03:37:37;;;;;;;6.70;4.85;;;;;;;4.55;82.67;96719.73;1746959;81;21007;-83
2022/04/27 03:40:05;;;;;;;7.20;5.70;;;;;;;4.54;82.62;96724.06;1772910;81;21008;-83
2022/04/27 03:42:31;;;;;;;7.83;5.17;;;;;;;4.53;82.73;96725.02;1775480;81;21145;-83
2022/04/27 03:44:57;;;;;;;7.83;5.80;;;;;;;4.52;82.92;96726.78;1778289;80;21016;-82
2022/04/27 03:47:23;;;;;;;8.33;6.22;;;;;;;4.52;83.22;96728.06;1778544;80;20984;-82
2022/04/27 03:49:48;;;;;;;10.18;7.78;;;;;;;4.52;83.44;96725.97;1778436;80;20977;-83
2022/04/27 03:52:14;;;;;;;11.65;8.25;;;;;;;4.55;83.57;96726.98;1778567;81;20989;-83
2022/04/27 03:54:40;;;;;;;9.30;6.70;;;;;;;4.59;83.84;96728.36;1778359;80;21040;-82
2022/04/27 03:57:05;;;;;;;9.05;7.45;;;;;;;4.63;83.87;96727.12;1776006;80;20991;-82
2022/04/27 03:59:31;;;;;;;9.95;6.87;;;;;;;4.71;84.25;96738.02;1719929;82;20985;-82
2022/04/27 04:01:57;;;;;;;12.10;7.87;;;;;;;4.78;84.40;96736.06;1702087;83;20980;-83
2022/04/27 04:04:24;;;;;;;16.12;11.93;;;;;;;4.84;84.60;96741.13;1696638;85;20973;-82
2022/04/27 04:06:50;;;;;;;14.25;11.00;;;;;;;4.90;84.60;96744.45;1711654;83;21047;-82
2022/04/27 04:09:15;;;;;;;16.10;11.95;;;;;;;4.94;84.60;96743.22;1707572;83;20963;-83
2022/04/27 04:11:41;;;;;;;16.85;11.85;;;;;;;5.01;84.56;96743.47;1696226;83;20987;-82
2022/04/27 04:14:07;;;;;;;16.35;11.85;;;;;;;5.07;84.68;96750.19;1696304;83;21449;-82
2022/04/27 04:16:33;;;;;;;15.48;11.60;;;;;;;5.13;84.72;96747.53;1696147;83;20956;-82
2022/04/27 04:18:58;;;;;;;11.85;9.53;;;;;;;5.20;84.76;96751.63;1696411;83;21008;-82
2022/04/27 04:21:26;;;;;;;16.35;12.63;;;;;;;5.21;84.74;96756.68;1696602;84;21430;-83
2022/04/27 04:23:52;;;;;;;12.93;9.20;;;;;;;5.24;84.83;96764.13;1696725;85;21071;-82
2022/04/27 04:29:02;;;;;;;11.73;8.08;;;;;;;5.35;85.26;96765.23;1722173;83;21024;-82
2022/04/27 04:31:29;;;;;;;11.85;7.75;;;;;;;5.46;85.22;96768.13;1717318;83;21103;-82
2022/04/27 04:33:55;;;;;;;17.48;12.88;;;;;;;5.56;85.33;96769.39;1721826;83;21418;-82
2022/04/27 04:36:20;;;;;;;17.92;11.73;;;;;;;5.61;85.82;96771.88;1725347;83;21039;-82
2022/04/27 04:38:46;;;;;;;18.57;12.95;;;;;;;5.64;86.07;96769.48;1725077;83;21011;-83
2022/04/27 04:41:12;;;;;;;19.52;13.30;;;;;;;5.67;86.43;96770.48;1723658;83;20953;-82
2022/04/27 04:43:38;;;;;;;22.10;14.60;;;;;;;5.70;86.95;96764.59;1701001;84;21106;-82
2022/04/27 04:46:04;;;;;;;23.38;17.25;;;;;;;5.77;86.62;96774.33;1769844;81;21080;-82
2022/04/27 04:48:30;;;;;;;24.45;16.05;;;;;;;5.86;87.04;96773.48;1769288;81;21324;-83
2022/04/27 04:50:55;;;;;;;25.95;18.95;;;;;;;5.94;86.58;96773.60;1769767;81;20984;-82
2022/04/27 04:53:21;;;;;;;30.88;19.75;;;;;;;6.00;86.49;96777.70;1770030;81;21035;-83
2022/04/27 04:55:47;;;;;;;37.75;25.92;;;;;;;6.04;86.59;96778.73;1758727;81;21064;-83
2022/04/27 04:58:13;;;;;;;32.58;21.65;;;;;;;6.07;86.66;96782.30;1761588;81;21300;-83
2022/04/27 05:00:39;;;;;;;25.77;18.07;;;;;;;6.10;86.34;96776.37;1752449;81;20897;-83
2022/04/27 05:03:05;;;;;;;66.30;40.63;;;;;;;6.14;86.31;96774.31;1750607;81;21043;-83
2022/04/27 05:05:31;;;;;;;52.30;31.30;;;;;;;6.17;86.05;96778.70;1768430;81;21012;-82
2022/04/27 05:07:57;;;;;;;26.87;17.52;;;;;;;6.22;86.22;96788.12;1752803;81;20907;-82
2022/04/27 05:10:23;;;;;;;33.88;21.95;;;;;;;6.25;85.94;96785.25;1755929;81;21304;-83
2022/04/27 05:12:49;;;;;;;27.60;20.27;;;;;;;6.30;86.24;96789.49;1768976;81;21000;-82
2022/04/27 05:15:15;;;;;;;21.07;15.40;;;;;;;6.32;85.95;96789.34;1758750;81;20953;-82
2022/04/27 05:17:40;;;;;;;21.93;16.10;;;;;;;6.40;85.91;96788.63;1769756;81;21331;-82
2022/04/27 05:20:07;;;;;;;14.43;10.82;;;;;;;6.47;85.58;96790.95;1767714;81;20949;-83
2022/04/27 05:22:38;;;;;;;16.02;11.53;;;;;;;6.54;84.63;96790.23;1742881;81;21011;-82
2022/04/27 05:25:06;;;;;;;14.33;11.08;;;;;;;6.64;84.27;96797.90;1767134;81;20957;-82
2022/04/27 05:27:32;;;;;;;15.13;11.68;;;;;;;6.71;84.63;96798.14;1769765;81;20965;-82
2022/04/27 05:32:43;;;;;;;29.07;18.90;;;;;;;6.83;85.34;96799.52;1768971;81;20951;-82
2022/04/27 05:35:09;;;;;;;103.50;57.05;;;;;;;6.91;85.40;96794.44;1769302;81;20967;-82
2022/04/27 05:37:37;;;;;;;43.45;28.05;;;;;;;6.99;85.55;96798.38;1766090;81;21337;-82
2022/04/27 05:40:04;;;;;;;29.15;22.22;;;;;;;7.03;84.63;96793.26;1751760;81;21036;-82
2022/04/27 05:42:31;;;;;;;32.33;21.93;;;;;;;7.05;84.62;96792.63;1747433;81;21462;-83
2022/04/27 05:44:57;;;;;;;40.48;31.85;;;;;;;7.09;84.68;96796.52;1765355;81;21028;-82
2022/04/27 05:47:25;;;;;;;37.15;28.10;;;;;;;7.12;84.79;96803.16;1769835;81;20949;-83
2022/04/27 05:49:51;;;;;;;19.32;14.45;;;;;;;7.14;84.98;96805.92;1768239;81;20953;-82
2022/04/27 05:52:18;;;;;;;17.07;14.18;;;;;;;7.17;84.41;96810.00;1769813;81;20984;-82
2022/04/27 05:54:44;;;;;;;15.18;12.55;;;;;;;7.24;83.95;96811.02;1768652;81;21027;-82
2022/04/27 05:57:11;;;;;;;17.45;13.83;;;;;;;7.31;83.88;96817.67;1769497;81;21012;-83
2022/04/27 05:59:37;;;;;;;15.32;12.28;;;;;;;7.39;84.10;96815.98;1769840;81;20984;-82
2022/04/27 06:02:03;;;;;;;15.50;10.58;;;;;;;7.43;83.30;96822.45;1769821;81;20898;-82
2022/04/27 06:04:29;;;;;;;20.12;15.10;;;;;;;7.42;82.82;96827.78;1769726;81;21008;-83
2022/04/27 06:06:55;;;;;;;17.40;12.45;;;;;;;7.48;83.84;96829.75;1768524;81;21020;-82
2022/04/27 06:09:21;;;;;;;13.53;11.10;;;;;;;7.55;83.40;96827.39;1769656;81;21375;-83
2022/04/27 06:11:47;;;;;;;13.50;10.45;;;;;;;7.56;81.85;96831.12;1763185;81;20914;-82
2022/04/27 06:14:12;;;;;;;12.03;10.03;;;;;;;7.62;81.58;96825.81;1766613;81;20972;-82
2022/04/27 06:16:38;;;;;;;15.88;11.33;;;;;;;7.66;81.44;96830.55;1765281;81;20968;-82
2022/04/27 06:19:04;;;;;;;13.32;10.53;;;;;;;7.67;81.51;96829.58;1767897;81;21045;-83
2022/04/27 06:21:33;;;;;;;13.95;10.45;;;;;;;7.70;81.79;96829.27;1758180;81;21066;-82
2022/04/27 06:24:00;;;;;;;14.87;9.98;;;;;;;7.75;81.16;96836.08;1766386;81;20995;-83
2022/04/27 06:26:26;;;;;;;12.50;10.23;;;;;;;7.80;80.95;96837.72;1767153;81;21307;-82
2022/04/27 06:28:53;;;;;;;13.00;10.38;;;;;;;7.83;80.78;96841.32;1768986;81;20959;-82
2022/04/27 06:31:19;;;;;;;14.87;10.80;;;;;;;7.85;79.79;96839.06;1765875;81;21375;-82
2022/04/27 06:33:45;;;;;;;14.70;11.10;;;;;;;7.91;80.32;96847.48;1769272;81;20967;-82
2022/04/27 06:36:11;;;;;;;14.18;11.25;;;;;;;7.95;80.25;96846.20;1761776;81;21044;-83
2022/04/27 06:38:37;;;;;;;13.68;10.23;;;;;;;7.99;80.09;96849.66;1759734;81;21319;-82
2022/04/27 06:41:03;;;;;;;17.10;11.88;;;;;;;8.04;79.52;96854.36;1765879;81;20936;-83
2022/04/27 06:43:29;;;;;;;13.80;10.93;;;;;;;8.01;79.80;96856.78;1767417;81;21031;-82
2022/04/27 06:45:54;;;;;;;14.70;11.00;;;;;;;8.02;79.88;96855.81;1768734;80;21359;-83
2022/04/27 06:48:20;;;;;;;16.25;12.30;;;;;;;8.03;78.96;96860.02;1745502;81;20968;-82
2022/04/27 06:50:46;;;;;;;12.90;10.10;;;;;;;8.06;79.49;96857.59;1767092;81;20983;-82
2022/04/27 06:53:12;;;;;;;13.45;10.20;;;;;;;8.10;79.64;96862.30;1751945;81;20992;-83
2022/04/27 06:55:38;;;;;;;16.07;11.73;;;;;;;8.11;78.83;96859.23;1752692;81;21003;-83
2022/04/27 06:58:04;;;;;;;11.75;9.68;;;;;;;8.09;79.16;96864.56;1760051;81;21000;-82
2022/04/27 07:00:30;;;;;;;12.90;10.38;;;;;;;8.07;79.07;96866.98;1769562;81;21348;-83
2022/04/27 07:02:56;;;;;;;12.80;9.60;;;;;;;8.08;79.04;96866.02;1765249;81;20976;-83
2022/04/27 07:05:24;;;;;;;13.40;10.70;;;;;;;8.16;78.84;96870.44;1766502;81;20967;-83
2022/04/27 07:07:50;;;;;;;12.68;9.73;;;;;;;8.19;78.96;96872.23;1750133;81;20961;-83
2022/04/27 07:10:19;;;;;;;12.88;10.28;;;;;;;8.21;78.13;96873.37;1747368;81;20981;-83
2022/04/27 07:12:46;;;;;;;12.65;9.45;;;;;;;8.21;77.95;96878.06;1740459;81;20988;-83
2022/04/27 07:15:11;;;;;;;13.10;9.43;;;;;;;8.23;78.30;96883.89;1744018;81;20988;-83
2022/04/27 07:17:37;;;;;;;11.18;8.78;;;;;;;8.26;78.17;96883.58;1742589;81;20972;-83
2022/04/27 07:20:04;;;;;;;14.70;10.05;;;;;;;8.31;78.54;96883.13;1749963;81;20992;-83
2022/04/27 07:22:30;;;;;;;19.15;13.70;;;;;;;8.36;78.30;96884.31;1751517;81;20945;-83
2022/04/27 07:24:56;;;;;;;22.60;15.13;;;;;;;8.39;79.03;96887.88;1742454;81;21289;-82
2022/04/27 07:27:21;;;;;;;27.35;19.27;;;;;;;8.48;78.80;96890.52;1754358;81;20949;-84
2022/04/27 07:29:47;;;;;;;27.27;20.17;;;;;;;8.49;79.27;96889.06;1744633;81;21390;-84
2022/04/27 07:32:13;;;;;;;29.55;19.95;;;;;;;8.51;79.27;96894.89;1749154;81;20995;-84
2022/04/27 07:34:39;;;;;;;29.63;22.20;;;;;;;8.52;79.29;96901.70;1758304;81;20976;-83
2022/04/27 07:37:05;;;;;;;29.07;21.40;;;;;;;8.50;79.18;96907.52;1742565;81;21538;-84
2022/04/27 07:39:32;;;;;;;34.92;24.57;;;;;;;8.51;79.33;96907.03;1768773;81;21079;-84
2022/04/27 07:41:58;;;;;;;35.13;24.23;;;;;;;8.49;79.63;96905.09;1739532;82;21370;-83
2022/04/27 07:44:25;;;;;;;31.02;20.90;;;;;;;8.57;79.96;96911.09;1762310;81;20979;-84
2022/04/27 07:46:51;;;;;;;35.17;25.55;;;;;;;8.63;79.37;96912.27;1774884;80;20993;-83
2022/04/27 07:49:22;;;;;;;37.17;27.75;;;;;;;8.57;79.52;96916.27;1759702;80;21296;-84
2022/04/27 07:51:49;;;;;;;32.05;23.73;;;;;;;8.56;80.62;96916.44;1762180;81;20948;-83
2022/04/27 07:54:15;;;;;;;27.80;20.25;;;;;;;8.61;80.69;96920.66;1761716;81;21066;-84
2022/04/27 07:56:40;;;;;;;34.63;25.50;;;;;;;8.56;79.53;96923.72;1770472;80;20978;-85
2022/04/27 07:59:06;;;;;;;37.08;26.55;;;;;;;8.57;80.27;96926.64;1759156;81;21291;-83
2022/04/27 08:01:32;;;;;;;34.40;26.10;;;;;;;8.66;80.67;96922.31;1773161;81;20964;-83
2022/04/27 08:03:57;;;;;;;30.62;22.30;;;;;;;8.66;80.29;96928.30;1772224;80;21072;-84
2022/04/27 08:06:23;;;;;;;31.10;23.15;;;;;;;8.70;80.33;96922.33;1775351;80;21008;-84
2022/04/27 08:08:49;;;;;;;29.85;21.57;;;;;;;8.78;80.34;96925.41;1774703;80;21335;-84
2022/04/27 08:11:16;;;;;;;26.48;19.20;;;;;;;8.84;80.38;96931.28;1774814;80;21012;-84
2022/04/27 08:13:43;;;;;;;21.77;17.17;;;;;;;8.90;80.25;96927.56;1769153;81;21042;-83
2022/04/27 08:16:10;;;;;;;22.20;16.55;;;;;;;8.93;79.54;96939.39;1755465;81;21323;-83
2022/04/27 08:18:36;;;;;;;23.35;18.40;;;;;;;8.95;78.88;96936.99;1748609;81;20952;-83
2022/04/27 08:21:15;;;;;;;23.27;18.50;;;;;;;8.94;78.44;96940.52;1745330;81;21342;-83
2022/04/27 08:23:43;;;;;;;21.00;16.00;;;;;;;8.93;79.00;96945.38;1744175;81;20944;-83
2022/04/27 08:26:10;;;;;;;19.27;14.95;;;;;;;8.95;78.66;96944.77;1744852;81;21016;-84
2022/04/27 08:28:37;;;;;;;19.70;14.95;;;;;;;9.01;78.70;96945.42;1752755;81;20948;-84
2022/04/27 08:31:03;;;;;;;19.32;14.40;;;;;;;9.07;79.00;96945.75;1751177;81;20953;-81
2022/04/27 08:33:28;;;;;;;19.37;15.03;;;;;;;9.09;78.18;96948.51;1750101;81;21015;-84
2022/04/27 08:35:55;;;;;;;19.20;16.00;;;;;;;9.14;78.37;96954.53;1744463;81;20991;-82
2022/04/27 08:38:21;;;;;;;19.27;15.58;;;;;;;9.20;78.41;96952.11;1749648;81;20985;-83
2022/04/27 08:40:47;;;;;;;21.80;16.00;;;;;;;9.25;78.60;96950.33;1745730;81;20960;-82
2022/04/27 08:43:14;;;;;;;20.62;16.52;;;;;;;9.28;77.69;96953.92;1743253;81;21225;-81
2022/04/27 08:45:42;;;;;;;23.22;16.73;;;;;;;9.26;78.20;96950.65;1748818;81;21502;-81
2022/04/27 08:48:09;;;;;;;18.95;15.30;;;;;;;9.25;77.61;96948.54;1745565;81;20964;-81
2022/04/27 08:50:35;;;;;;;19.35;15.28;;;;;;;9.28;77.10;96953.44;1753943;81;21060;-81
2022/04/27 08:53:01;;;;;;;20.43;15.45;;;;;;;9.33;77.92;96945.98;1750213;81;21075;-82
2022/04/27 08:55:30;;;;;;;17.07;13.28;;;;;;;9.44;77.47;96951.35;1746132;81;20971;-81
2022/04/27 08:58:14;;;;;;;19.37;14.80;;;;;;;9.44;74.71;96946.16;1751107;81;20964;-81
2022/04/27 09:00:41;;;;;;;18.30;13.20;;;;;;;9.44;76.49;96950.05;1750759;81;21391;-81
2022/04/27 09:03:36;;;;;;;18.82;14.38;;;;;;;9.51;75.50;96949.73;1727089;81;21026;-81
2022/04/27 09:06:12;;;;;;;16.42;14.13;;;;;;;9.57;76.16;96947.77;1742150;81;21016;-81
2022/04/27 09:08:46;;;;;;;19.30;14.03;;;;;;;9.66;76.51;96947.79;1743373;81;21004;-82
2022/04/27 09:11:25;;;;;;;13.15;10.90;;;;;;;9.79;76.71;96948.12;1756267;81;21372;-81
2022/04/27 09:14:01;;;;;;;15.72;12.20;;;;;;;9.86;72.83;96951.67;1750748;81;21000;-82
2022/04/27 09:22:07;;;;;;;14.95;11.65;;;;;;;9.97;74.60;96956.55;1738707;81;20945;-81
2022/04/27 09:24:51;;;;;;;11.28;8.93;;;;;;;9.96;73.18;96958.01;1747194;81;21000;-81
2022/04/27 09:27:20;;;;;;;13.32;10.72;;;;;;;9.93;70.95;96961.75;1750535;81;21312;-81
2022/04/27 09:30:07;;;;;;;11.05;9.30;;;;;;;9.89;73.60;96961.23;1744928;81;21347;-81
2022/04/27 09:32:34;;;;;;;10.68;8.30;;;;;;;9.95;72.42;96962.88;1739475;81;21079;-81
2022/04/27 09:35:02;;;;;;;12.98;10.25;;;;;;;10.00;72.42;96958.00;1742798;81;21438;-81
2022/04/27 09:37:28;;;;;;;9.48;8.48;;;;;;;10.07;72.14;96962.36;1748986;81;21000;-80
2022/04/27 09:40:08;;;;;;;11.22;8.80;;;;;;;10.04;70.78;96958.80;1743290;81;21366;-81
2022/04/27 09:42:46;;;;;;;11.18;8.50;;;;;;;10.02;69.04;96959.94;1739271;81;20952;-81
2022/04/27 09:45:24;;;;;;;7.95;7.15;;;;;;;10.04;70.41;96961.39;1738964;81;21013;-81
2022/04/27 09:47:58;;;;;;;10.18;8.00;;;;;;;10.16;70.59;96956.19;1741502;81;21012;-81
2022/04/27 09:50:23;;;;;;;10.03;7.90;;;;;;;10.20;70.25;96957.47;1749210;81;20992;-81
2022/04/27 09:52:49;;;;;;;9.83;7.03;;;;;;;10.34;70.15;96963.81;1745797;81;20992;-81
2022/04/27 09:55:15;;;;;;;8.55;7.42;;;;;;;10.46;69.18;96962.98;1741094;81;20988;-81
2022/04/27 09:57:41;;;;;;;7.08;5.85;;;;;;;10.48;68.05;96963.14;1743482;81;21397;-81
2022/04/27 10:00:09;;;;;;;8.98;6.33;;;;;;;10.55;66.93;96958.06;1744675;81;20980;-81
2022/04/27 10:02:35;;;;;;;7.55;6.72;;;;;;;10.60;66.60;96958.89;1756809;81;21078;-81
2022/04/27 10:05:01;;;;;;;8.73;6.87;;;;;;;10.68;66.68;96953.16;1743220;81;20921;-81
2022/04/27 10:07:30;;;;;;;8.18;7.00;;;;;;;10.80;67.14;96958.31;1743239;81;20984;-81
2022/04/27 10:09:55;;;;;;;9.60;7.28;;;;;;;10.94;66.63;96959.41;1746545;81;21039;-81
2022/04/27 10:12:21;;;;;;;8.38;6.75;;;;;;;11.09;67.16;96959.50;1738767;81;21249;-81
2022/04/27 10:14:48;;;;;;;8.85;7.42;;;;;;;11.30;68.35;96953.67;1739497;81;20992;-81
2022/04/27 10:17:15;;;;;;;7.83;6.47;;;;;;;11.50;67.59;96954.84;1749265;81;21302;-82
2022/04/27 10:19:45;;;;;;;8.70;6.78;;;;;;;11.65;66.86;96950.50;1743150;81;21076;-81
2022/04/27 10:22:26;;;;;;;6.75;5.60;;;;;;;11.84;65.58;96959.66;1739466;81;20948;-81
2022/04/27 10:24:51;;;;;;;6.78;5.15;;;;;;;11.93;64.80;96955.20;1739162;81;21439;-81
2022/04/27 10:27:40;;;;;;;6.45;5.58;;;;;;;11.93;60.92;96962.53;1724342;81;21043;-82
2022/04/27 10:30:10;;;;;;;7.28;6.22;;;;;;;11.92;63.06;96964.81;1739479;82;21355;-82
2022/04/27 10:32:43;;;;;;;7.17;5.90;;;;;;;11.92;63.08;96964.00;1738504;81;20956;-81
2022/04/27 10:35:22;;;;;;;7.35;6.53;;;;;;;11.99;63.80;96960.51;1739499;82;21027;-82
2022/04/27 10:38:02;;;;;;;7.37;5.62;;;;;;;12.10;63.84;96962.38;1739484;82;21391;-81
2022/04/27 10:40:40;;;;;;;6.83;5.08;;;;;;;12.08;61.43;96963.86;1719558;81;21918;-82
2022/04/27 10:43:12;;;;;;;6.15;5.53;;;;;;;12.13;61.67;96963.33;1751688;81;21091;-81
2022/04/27 10:45:44;;;;;;;;;;;;;;;12.15;60.36;96971.27;1748827;81;21040;-81
2022/04/27 10:48:24;;;;;;;7.20;5.42;;;;;;;12.13;60.70;96971.95;1734569;81;20111;-81
2022/04/27 10:50:58;;;;;;;6.92;5.72;;;;;;;12.09;59.84;96970.69;1740384;81;21367;-81
2022/04/27 10:53:26;;;;;;;7.12;5.50;;;;;;;11.97;59.70;96981.20;1738123;82;20988;-81
2022/04/27 10:55:55;;;;;;;7.80;6.05;;;;;;;11.83;60.71;96972.86;1739338;82;20977;-81
2022/04/27 10:58:28;;;;;;;7.50;6.08;;;;;;;11.76;61.65;96970.13;1739439;82;21059;-82
2022/04/27 11:01:11;;;;;;;7.22;5.97;;;;;;;11.72;60.45;96973.57;1739250;82;20937;-81
2022/04/27 11:03:39;;;;;;;5.92;5.03;;;;;;;11.62;61.35;96976.08;1764536;81;21292;-81
2022/04/27 11:06:09;;;;;;;7.22;5.85;;;;;;;11.55;59.34;96969.47;1768583;81;20933;-81
2022/04/27 11:09:01;;;;;;;7.78;6.35;;;;;;;11.47;60.14;96976.50;1792641;80;21060;-81
2022/04/27 11:11:28;;;;;;;7.87;6.62;;;;;;;11.40;60.89;96977.69;1738346;81;20965;-81
2022/04/27 11:14:02;;;;;;;10.90;7.50;;;;;;;11.37;61.12;96973.62;1768298;81;21447;-81
2022/04/27 11:16:28;;;;;;;9.08;7.47;;;;;;;11.32;61.86;96977.73;1749175;80;20921;-81
2022/04/27 11:18:57;;;;;;;8.95;6.85;;;;;;;11.30;62.55;96975.30;1769897;81;20996;-81
2022/04/27 11:21:28;;;;;;;8.40;7.10;;;;;;;11.22;60.57;96976.63;1754057;81;21028;-81
2022/04/27 11:23:53;;;;;;;8.08;6.92;;;;;;;11.11;61.37;96977.03;1689336;84;21069;-81
2022/04/27 11:26:19;;;;;;;8.93;7.30;;;;;;;11.11;61.57;96975.73;1736371;81;21353;-81
2022/04/27 11:28:46;;;;;;;8.95;7.70;;;;;;;11.12;62.51;96977.35;1748416;81;21056;-81
2022/04/27 11:31:13;;;;;;;7.70;6.62;;;;;;;11.12;61.75;96979.95;1739334;81;20992;-81
2022/04/27 11:33:40;;;;;;;7.30;5.70;;;;;;;11.17;62.29;96972.94;1769156;81;20921;-81
2022/04/27 11:36:07;;;;;;;8.65;6.90;;;;;;;11.29;61.41;96980.67;1769942;81;21481;-81
2022/04/27 11:38:35;;;;;;;11.73;7.80;;;;;;;11.33;62.01;96972.84;1758767;81;21047;-81
2022/04/27 11:41:05;;;;;;;10.65;8.18;;;;;;;11.40;62.71;96971.19;1689283;84;21032;-81
2022/04/27 11:43:34;;;;;;;9.73;8.25;;;;;;;11.45;61.66;96977.17;1721230;82;20968;-81
2022/04/27 11:46:00;;;;;;;9.35;7.55;;;;;;;11.47;62.10;96976.02;1739668;81;21020;-81
2022/04/27 11:48:30;;;;;;;9.30;7.60;;;;;;;11.45;61.32;96976.67;1700277;84;21047;-82
2022/04/27 11:50:57;;;;;;;10.63;8.50;;;;;;;11.40;61.25;96975.91;1739779;81;21335;-81
2022/04/27 11:53:23;;;;;;;10.72;8.05;;;;;;;11.28;61.41;96981.17;1739586;81;20976;-82
2022/04/27 11:55:51;;;;;;;10.50;8.70;;;;;;;11.21;61.77;96982.01;1747562;81;21371;-82